createdAt,value
2023-02-24T00:01:28.387Z,25.03
2023-02-24T00:04:00.344Z,24.97
2023-02-24T00:06:36.870Z,24.63
2023-02-24T00:09:09.418Z,25.30
2023-02-24T00:11:38.145Z,24.67
2023-02-24T00:14:07.164Z,25.57
2023-02-24T00:16:34.468Z,24.83
2023-02-24T00:19:01.545Z,25.90
2023-02-24T00:21:31.226Z,26.77
2023-02-24T00:23:59.374Z,26.30
2023-02-24T00:26:26.816Z,24.87
2023-02-24T00:28:53.430Z,25.73
2023-02-24T00:31:21.051Z,25.03
2023-02-24T00:33:47.758Z,25.73
2023-02-24T00:36:24.036Z,25.90
2023-02-24T00:38:56.146Z,24.83
2023-02-24T00:41:29.344Z,26.13
2023-02-24T00:43:58.953Z,24.73
2023-02-24T00:46:26.794Z,25.23
2023-02-24T00:48:55.188Z,25.87
2023-02-24T00:51:25.434Z,26.60
2023-02-24T00:53:57.958Z,25.93
2023-02-24T00:56:28.354Z,27.03
2023-02-24T00:58:57.452Z,24.83
2023-02-24T01:01:27.123Z,27.57
2023-02-24T01:03:57.041Z,25.33
2023-02-24T01:06:26.617Z,24.23
2023-02-24T01:08:54.248Z,24.93
2023-02-24T01:11:43.121Z,26.33
2023-02-24T01:14:19.271Z,25.47
2023-02-24T01:16:50.249Z,25.83
2023-02-24T01:19:23.344Z,24.97
2023-02-24T01:21:55.133Z,25.97
2023-02-24T01:24:23.779Z,25.80
2023-02-24T01:26:50.565Z,24.60
2023-02-24T01:29:17.306Z,24.20
2023-02-24T01:31:44.427Z,25.20
2023-02-24T01:34:13.386Z,25.43
2023-02-24T01:36:44.870Z,24.23
2023-02-24T01:39:13.331Z,25.37
2023-02-24T01:41:42.376Z,24.37
2023-02-24T01:44:29.557Z,24.90
2023-02-24T01:46:56.291Z,25.13
2023-02-24T01:49:27.256Z,24.23
2023-02-24T01:51:55.658Z,24.60
2023-02-24T01:54:26.433Z,25.27
2023-02-24T01:56:55.185Z,24.13
2023-02-24T01:59:24.789Z,24.03
2023-02-24T02:01:58.493Z,24.80
2023-02-24T02:04:36.592Z,24.07
2023-02-24T02:07:03.732Z,24.00
2023-02-24T02:09:32.433Z,22.93
2023-02-24T02:11:58.877Z,22.87
2023-02-24T02:14:27.805Z,22.07
2023-02-24T02:17:05.065Z,22.23
2023-02-24T02:19:56.682Z,22.67
2023-02-24T02:23:02.765Z,23.00
2023-02-24T02:25:55.515Z,21.70
2023-02-24T02:28:31.561Z,22.60
2023-02-24T02:31:19.516Z,22.20
2023-02-24T02:34:05.492Z,22.63
2023-02-24T02:37:03.023Z,20.67
2023-02-24T02:39:35.989Z,22.10
2023-02-24T02:42:18.758Z,21.57
2023-02-24T02:45:18.090Z,21.00
2023-02-24T02:47:54.434Z,21.83
2023-02-24T02:50:36.011Z,21.87
2023-02-24T02:53:08.011Z,22.93
2023-02-24T02:55:46.968Z,22.73
2023-02-24T02:58:17.634Z,21.43
2023-02-24T03:00:58.713Z,21.33
2023-02-24T03:03:29.061Z,21.63
2023-02-24T03:06:03.947Z,21.67
2023-02-24T03:08:37.244Z,20.87
2023-02-24T03:11:07.622Z,22.77
2023-02-24T03:13:38.815Z,22.70
2023-02-24T03:16:10.855Z,22.97
2023-02-24T03:18:50.800Z,21.43
2023-02-24T03:21:25.848Z,22.87
2023-02-24T03:23:53.088Z,22.07
2023-02-24T03:26:37.251Z,22.23
2023-02-24T03:29:24.028Z,22.83
2023-02-24T03:32:04.858Z,22.60
2023-02-24T03:34:46.468Z,21.73
2023-02-24T03:37:13.065Z,21.70
2023-02-24T03:39:39.939Z,21.07
2023-02-24T03:42:19.282Z,21.67
2023-02-24T03:44:46.594Z,19.93
2023-02-24T03:47:16.092Z,21.07
2023-02-24T03:49:43.794Z,21.37
2023-02-24T03:52:37.725Z,21.93
2023-02-24T03:55:42.951Z,21.80
2023-02-24T03:58:32.278Z,19.83
2023-02-24T04:01:06.613Z,21.77
2023-02-24T04:03:36.758Z,24.03
2023-02-24T04:06:25.640Z,21.40
2023-02-24T04:09:06.360Z,22.17
2023-02-24T04:12:04.913Z,21.67
2023-02-24T04:14:43.562Z,21.60
2023-02-24T04:17:20.431Z,22.73
2023-02-24T04:19:51.130Z,22.20
2023-02-24T04:22:24.522Z,21.20
2023-02-24T04:24:56.500Z,21.00
2023-02-24T04:27:24.046Z,20.43
2023-02-24T04:29:55.639Z,21.53
2023-02-24T04:32:27.560Z,21.10
2023-02-24T04:35:01.534Z,20.87
2023-02-24T04:37:33.750Z,23.33
2023-02-24T04:40:01.526Z,21.37
2023-02-24T04:42:28.551Z,21.37
2023-02-24T04:44:58.538Z,21.90
2023-02-24T04:47:28.694Z,22.80
2023-02-24T04:49:55.157Z,21.60
2023-02-24T04:52:21.645Z,21.73
2023-02-24T04:54:48.164Z,21.20
2023-02-24T04:57:14.651Z,22.43
2023-02-24T04:59:41.189Z,21.67
2023-02-24T05:02:07.726Z,22.97
2023-02-24T05:04:38.765Z,24.13
2023-02-24T05:07:05.523Z,22.03
2023-02-24T05:09:32.071Z,22.27
2023-02-24T05:11:58.992Z,23.07
2023-02-24T05:14:25.572Z,22.93
2023-02-24T05:16:52.130Z,22.10
2023-02-24T05:19:38.661Z,22.73
2023-02-24T05:22:07.249Z,21.77
2023-02-24T05:24:34.705Z,23.27
2023-02-24T05:27:03.747Z,22.17
2023-02-24T05:29:33.505Z,22.50
2023-02-24T05:32:01.215Z,22.47
2023-02-24T05:34:30.585Z,22.03
2023-02-24T05:36:58.947Z,22.13
2023-02-24T05:39:26.562Z,20.93
2023-02-24T05:41:54.770Z,21.50
2023-02-24T05:44:23.880Z,20.77
2023-02-24T05:46:58.033Z,21.27
2023-02-24T05:49:32.910Z,22.07
2023-02-24T05:52:02.637Z,20.80
2023-02-24T05:54:35.688Z,21.37
2023-02-24T05:57:05.991Z,21.50
2023-02-24T05:59:32.949Z,21.03
2023-02-24T06:02:06.858Z,22.27
2023-02-24T06:04:45.590Z,22.57
2023-02-24T06:07:18.934Z,22.83
2023-02-24T06:09:49.979Z,21.70
2023-02-24T06:12:17.966Z,21.17
2023-02-24T06:14:47.728Z,20.23
2023-02-24T06:17:16.996Z,22.77
2023-02-24T06:19:44.748Z,21.80
2023-02-24T06:22:16.001Z,21.60
2023-02-24T06:24:45.499Z,21.00
2023-02-24T06:27:24.594Z,21.07
2023-02-24T06:29:53.861Z,22.30
2023-02-24T06:32:24.678Z,22.70
2023-02-24T06:34:51.748Z,22.97
2023-02-24T06:37:20.376Z,21.30
2023-02-24T06:39:46.822Z,22.33
2023-02-24T06:42:14.707Z,21.33
2023-02-24T06:44:41.592Z,21.90
2023-02-24T06:47:13.132Z,22.07
2023-02-24T06:49:40.212Z,22.37
2023-02-24T06:52:06.666Z,22.07
2023-02-24T06:54:35.780Z,21.80
2023-02-24T06:57:03.554Z,23.00
2023-02-24T06:59:30.189Z,21.90
2023-02-24T07:01:58.594Z,22.90
2023-02-24T07:04:28.298Z,21.60
2023-02-24T07:07:03.121Z,22.50
2023-02-24T07:09:31.492Z,22.47
2023-02-24T07:11:58.727Z,23.43
2023-02-24T07:14:27.826Z,23.87
2023-02-24T07:16:55.108Z,23.50
2023-02-24T07:19:27.473Z,22.77
2023-02-24T07:22:03.104Z,22.03
2023-02-24T07:24:40.542Z,21.73
2023-02-24T07:27:11.598Z,22.70
2023-02-24T07:29:38.286Z,22.97
2023-02-24T07:32:08.637Z,22.27
2023-02-24T07:34:40.691Z,21.97
2023-02-24T07:37:08.620Z,22.70
2023-02-24T07:39:37.034Z,22.73
2023-02-24T07:42:04.280Z,21.80
2023-02-24T07:44:39.032Z,21.70
2023-02-24T07:47:08.074Z,23.00
2023-02-24T07:49:35.224Z,22.20
2023-02-24T07:52:01.913Z,22.43
2023-02-24T07:54:30.081Z,22.53
2023-02-24T07:56:58.858Z,23.17
2023-02-24T07:59:28.622Z,22.10
2023-02-24T08:01:55.787Z,22.77
2023-02-24T08:04:26.724Z,22.17
2023-02-24T08:06:56.200Z,23.07
2023-02-24T08:09:45.599Z,23.17
2023-02-24T08:12:21.501Z,21.77
2023-02-24T08:14:51.230Z,22.33
2023-02-24T08:17:24.121Z,21.67
2023-02-24T08:20:12.062Z,22.43
2023-02-24T08:22:43.778Z,22.43
2023-02-24T08:25:18.118Z,23.13
2023-02-24T08:28:06.054Z,21.47
2023-02-24T08:30:44.757Z,22.03
2023-02-24T08:33:17.334Z,23.27
2023-02-24T08:35:46.405Z,22.50
2023-02-24T08:38:25.895Z,21.13
2023-02-24T08:40:55.572Z,22.33
2023-02-24T08:43:29.090Z,21.77
2023-02-24T08:46:18.106Z,22.30
2023-02-24T08:48:51.085Z,22.60
2023-02-24T08:51:34.860Z,22.60
2023-02-24T08:54:10.781Z,20.97
2023-02-24T08:56:43.250Z,21.40
2023-02-24T08:59:37.792Z,22.07
2023-02-24T09:02:24.066Z,21.50
2023-02-24T09:04:53.580Z,21.30
2023-02-24T09:07:26.648Z,21.17
2023-02-24T09:09:56.600Z,21.23
2023-02-24T09:12:29.141Z,20.33
2023-02-24T09:15:04.781Z,21.17
2023-02-24T09:17:49.687Z,22.23
2023-02-24T09:20:27.559Z,21.17
2023-02-24T09:23:00.604Z,23.67
2023-02-24T09:25:48.280Z,22.47
2023-02-24T09:28:26.690Z,21.70
2023-02-24T09:30:55.778Z,21.03
2023-02-24T09:33:28.454Z,21.47
2023-02-24T09:36:12.965Z,21.00
2023-02-24T09:39:01.083Z,20.67
2023-02-24T09:41:56.568Z,18.37
2023-02-24T09:44:26.275Z,19.60
2023-02-24T09:47:01.052Z,18.93
2023-02-24T09:49:39.880Z,19.03
2023-02-24T09:52:16.889Z,18.90
2023-02-24T09:55:05.954Z,20.20
2023-02-24T09:58:01.621Z,19.83
2023-02-24T10:00:33.531Z,18.30
2023-02-24T10:03:19.550Z,17.07
2023-02-24T10:06:12.191Z,16.97
2023-02-24T10:08:45.184Z,18.73
2023-02-24T10:11:14.547Z,19.73
2023-02-24T10:14:03.500Z,18.87
2023-02-24T10:16:41.520Z,17.73
2023-02-24T10:19:23.568Z,17.53
2023-02-24T10:22:03.021Z,17.63
2023-02-24T10:24:47.231Z,17.00
2023-02-24T10:27:27.186Z,16.83
2023-02-24T10:30:19.695Z,16.07
2023-02-24T10:32:54.549Z,16.10
2023-02-24T10:35:25.938Z,17.63
2023-02-24T10:37:54.016Z,16.17
2023-02-24T10:40:45.008Z,14.60
2023-02-24T10:43:17.877Z,15.90
2023-02-24T10:45:46.962Z,14.13
2023-02-24T10:48:41.350Z,14.13
2023-02-24T10:51:31.932Z,11.53
2023-02-24T10:54:33.962Z,11.60
2023-02-24T10:57:18.465Z,11.33
2023-02-24T11:00:18.829Z,11.47
2023-02-24T11:03:10.555Z,11.50
2023-02-24T11:06:06.032Z,12.20
2023-02-24T11:08:39.654Z,10.77
2023-02-24T11:11:25.865Z,11.83
2023-02-24T11:14:12.109Z,12.27
2023-02-24T11:17:07.437Z,11.37
2023-02-24T11:19:50.160Z,11.83
2023-02-24T11:22:22.007Z,11.73
2023-02-24T11:24:50.431Z,12.20
2023-02-24T11:27:21.181Z,10.47
2023-02-24T11:30:09.996Z,11.70
2023-02-24T11:32:46.742Z,11.50
2023-02-24T11:35:24.174Z,11.73
2023-02-24T11:38:12.176Z,7.97
2023-02-24T11:40:45.352Z,8.50
2023-02-24T11:43:18.497Z,8.97
2023-02-24T11:45:51.198Z,8.70
2023-02-24T11:48:56.976Z,8.83
2023-02-24T11:51:31.580Z,9.47
2023-02-24T11:54:12.817Z,9.07
2023-02-24T11:56:44.082Z,8.07
2023-02-24T11:59:17.919Z,7.50
2023-02-24T12:02:09.197Z,7.77
2023-02-24T12:04:59.767Z,7.60
2023-02-24T12:07:38.871Z,7.33
2023-02-24T12:10:17.883Z,6.83
2023-02-24T12:13:00.805Z,7.03
2023-02-24T12:15:41.431Z,7.70
2023-02-24T12:18:27.568Z,7.37
2023-02-24T12:21:18.412Z,7.50
2023-02-24T12:23:48.189Z,6.63
2023-02-24T12:26:30.550Z,6.87
2023-02-24T12:29:24.208Z,6.90
2023-02-24T12:32:10.850Z,7.07
2023-02-24T12:34:46.894Z,6.07
2023-02-24T12:37:28.593Z,7.30
2023-02-24T12:40:01.045Z,6.97
2023-02-24T12:42:57.283Z,7.30
2023-02-24T12:45:33.743Z,7.60
2023-02-24T12:48:40.841Z,7.27
2023-02-24T12:51:32.885Z,7.57
2023-02-24T12:54:06.849Z,7.03
2023-02-24T12:56:52.209Z,7.60
2023-02-24T12:59:25.338Z,7.97
2023-02-24T13:01:59.583Z,7.40
2023-02-24T13:04:36.495Z,6.93
2023-02-24T13:07:45.776Z,7.63
2023-02-24T13:10:30.729Z,6.23
2023-02-24T13:13:06.457Z,6.40
2023-02-24T13:15:34.471Z,6.40
2023-02-24T13:18:01.143Z,6.00
2023-02-24T13:20:38.367Z,5.70
2023-02-24T13:23:21.221Z,6.93
2023-02-24T13:25:55.865Z,5.77
2023-02-24T13:28:25.337Z,7.13
2023-02-24T13:31:07.966Z,6.40
2023-02-24T13:33:39.020Z,7.10
2023-02-24T13:36:13.535Z,6.13
2023-02-24T13:38:46.561Z,6.90
2023-02-24T13:41:28.275Z,6.90
2023-02-24T13:44:28.447Z,5.93
2023-02-24T13:47:17.278Z,6.60
2023-02-24T13:50:02.779Z,6.90
2023-02-24T13:52:32.646Z,6.70
2023-02-24T13:55:12.097Z,7.50
2023-02-24T13:57:54.578Z,6.53
2023-02-24T14:00:32.476Z,6.13
2023-02-24T14:03:00.000Z,5.87
2023-02-24T14:05:30.060Z,5.60
2023-02-24T14:07:58.031Z,6.00
2023-02-24T14:10:27.292Z,6.10
2023-02-24T14:13:04.975Z,6.30
2023-02-24T14:15:32.324Z,5.63
2023-02-24T14:18:01.506Z,5.80
2023-02-24T14:20:32.558Z,5.70
2023-02-24T14:23:00.381Z,5.97
2023-02-24T14:25:30.641Z,6.03
2023-02-24T14:27:57.663Z,6.03
2023-02-24T14:30:35.185Z,5.50
2023-02-24T14:33:03.465Z,6.40
2023-02-24T14:35:41.590Z,5.90
2023-02-24T14:38:27.691Z,6.03
2023-02-24T14:40:54.267Z,5.60
2023-02-24T14:43:20.837Z,6.20
2023-02-24T14:45:50.350Z,6.57
2023-02-24T14:48:24.326Z,6.67
2023-02-24T14:50:51.253Z,6.30
2023-02-24T14:53:20.867Z,5.63
2023-02-24T14:55:50.142Z,5.83
2023-02-24T14:58:23.639Z,6.17
2023-02-24T15:00:56.436Z,5.90
2023-02-24T15:03:29.428Z,5.23
2023-02-24T15:05:59.167Z,5.10
2023-02-24T15:08:35.100Z,6.97
2023-02-24T15:11:11.644Z,6.00
2023-02-24T15:13:45.405Z,6.03
2023-02-24T15:16:40.085Z,6.40
2023-02-24T15:19:25.063Z,6.10
2023-02-24T15:21:51.555Z,6.20
2023-02-24T15:24:20.878Z,7.10
2023-02-24T15:27:20.636Z,7.37
2023-02-24T15:30:00.130Z,6.63
2023-02-24T15:32:29.432Z,6.53
2023-02-24T15:34:56.206Z,6.60
2023-02-24T15:37:26.588Z,6.57
2023-02-24T15:40:12.557Z,6.80
2023-02-24T15:43:17.193Z,6.30
2023-02-24T15:45:43.715Z,5.90
2023-02-24T15:48:22.857Z,7.10
2023-02-24T15:50:50.406Z,5.87
2023-02-24T15:53:17.246Z,6.53
2023-02-24T15:55:44.634Z,6.40
2023-02-24T15:58:17.242Z,5.90
2023-02-24T16:00:45.365Z,6.13
2023-02-24T16:03:12.702Z,6.73
2023-02-24T16:05:39.542Z,6.33
2023-02-24T16:08:12.864Z,6.70
2023-02-24T16:10:39.949Z,6.73
2023-02-24T16:13:06.616Z,6.73
2023-02-24T16:15:39.182Z,6.53
2023-02-24T16:18:14.068Z,7.20
2023-02-24T16:20:40.597Z,6.87
2023-02-24T16:23:07.115Z,7.77
2023-02-24T16:25:45.094Z,7.33
2023-02-24T16:28:17.183Z,6.73
2023-02-24T16:30:44.611Z,6.10
2023-02-24T16:33:13.234Z,6.30
2023-02-24T16:35:42.911Z,6.30
2023-02-24T16:38:19.029Z,6.67
2023-02-24T16:40:47.816Z,6.67
2023-02-24T16:43:15.147Z,6.53
2023-02-24T16:45:43.499Z,5.97
2023-02-24T16:48:19.990Z,6.83
2023-02-24T16:50:47.076Z,6.93
2023-02-24T16:53:19.796Z,5.60
2023-02-24T16:55:47.276Z,5.73
2023-02-24T16:58:14.984Z,5.43
2023-02-24T17:00:45.143Z,5.87
2023-02-24T17:03:23.201Z,5.47
2023-02-24T17:05:50.104Z,4.73
2023-02-24T17:08:17.450Z,5.27
2023-02-24T17:10:44.789Z,4.27
2023-02-24T17:13:17.811Z,4.27
2023-02-24T17:15:44.605Z,3.80
2023-02-24T17:18:11.800Z,4.10
2023-02-24T17:20:40.365Z,4.10
2023-02-24T17:23:07.090Z,4.10
2023-02-24T17:25:34.002Z,4.40
2023-02-24T17:28:01.198Z,4.17
2023-02-24T17:30:33.510Z,4.00
2023-02-24T17:33:00.624Z,4.43
2023-02-24T17:35:28.395Z,4.10
2023-02-24T17:37:54.925Z,4.20
2023-02-24T17:40:22.069Z,4.00
2023-02-24T17:42:49.046Z,3.93
2023-02-24T17:45:15.621Z,4.10
2023-02-24T17:47:42.709Z,3.73
2023-02-24T17:50:10.829Z,3.40
2023-02-24T17:52:37.997Z,3.40
2023-02-24T17:55:05.686Z,3.83
2023-02-24T17:57:34.037Z,4.00
2023-02-24T18:00:00.593Z,3.03
2023-02-24T18:02:27.201Z,3.47
2023-02-24T18:04:54.031Z,3.37
2023-02-24T18:07:21.219Z,3.57
2023-02-24T18:09:47.945Z,3.13
2023-02-24T18:12:14.499Z,2.70
2023-02-24T18:14:40.942Z,2.90
2023-02-24T18:17:07.384Z,2.60
2023-02-24T18:19:33.882Z,2.90
2023-02-24T18:22:00.409Z,2.10
2023-02-24T18:24:27.043Z,2.00
2023-02-24T18:26:53.973Z,2.23
2023-02-24T18:29:20.696Z,2.40
2023-02-24T18:31:47.509Z,2.37
2023-02-24T18:34:14.091Z,1.87
2023-02-24T18:36:40.633Z,1.40
2023-02-24T18:39:08.983Z,1.77
2023-02-24T18:41:35.636Z,1.57
2023-02-24T18:44:02.220Z,1.40
2023-02-24T18:46:28.792Z,1.60
2023-02-24T18:48:56.271Z,1.60
2023-02-24T18:51:26.241Z,1.60
2023-02-24T18:53:53.277Z,1.40
2023-02-24T18:56:22.533Z,1.50
2023-02-24T18:58:49.683Z,1.60
2023-02-24T19:01:24.878Z,1.30
2023-02-24T19:03:52.520Z,1.40
2023-02-24T19:06:20.752Z,1.47
2023-02-24T19:08:49.831Z,1.33
2023-02-24T19:11:19.215Z,1.30
2023-02-24T19:13:49.858Z,1.20
2023-02-24T19:16:17.226Z,1.30
2023-02-24T19:18:44.288Z,1.20
2023-02-24T19:21:11.293Z,1.63
2023-02-24T19:23:38.660Z,1.20
2023-02-24T19:26:07.172Z,1.30
2023-02-24T19:28:33.652Z,1.40
2023-02-24T19:31:00.226Z,1.40
2023-02-24T19:33:26.698Z,1.30
2023-02-24T19:35:59.518Z,1.70
2023-02-24T19:38:26.148Z,1.63
2023-02-24T19:40:52.636Z,1.43
2023-02-24T19:43:19.154Z,1.87
2023-02-24T19:45:45.693Z,2.10
2023-02-24T19:48:12.220Z,2.30
2023-02-24T19:50:40.850Z,2.20
2023-02-24T19:53:08.194Z,2.70
2023-02-24T19:55:34.885Z,2.63
2023-02-24T19:58:01.358Z,2.83
2023-02-24T20:00:27.852Z,3.00
2023-02-24T20:02:54.315Z,3.13
2023-02-24T20:05:20.883Z,3.50
2023-02-24T20:07:47.716Z,3.80
2023-02-24T20:10:16.446Z,3.53
2023-02-24T20:12:43.292Z,3.53
2023-02-24T20:15:10.112Z,4.07
2023-02-24T20:17:36.612Z,3.90
2023-02-24T20:20:03.868Z,4.03
2023-02-24T20:22:30.404Z,4.03
2023-02-24T20:24:57.011Z,3.73
2023-02-24T20:27:23.760Z,4.43
2023-02-24T20:29:52.360Z,3.83
2023-02-24T20:32:20.006Z,3.90
2023-02-24T20:34:46.577Z,4.40
2023-02-24T20:37:13.067Z,4.20
2023-02-24T20:39:39.937Z,5.30
2023-02-24T20:42:06.448Z,5.17
2023-02-24T20:44:33.341Z,5.50
2023-02-24T20:46:59.811Z,4.70
2023-02-24T20:49:27.227Z,4.43
2023-02-24T20:51:53.726Z,5.10
2023-02-24T20:54:20.251Z,4.90
2023-02-24T20:56:48.032Z,5.10
2023-02-24T20:59:21.929Z,5.57
2023-02-24T21:01:49.792Z,5.07
2023-02-24T21:04:19.845Z,5.30
2023-02-24T21:06:47.912Z,4.60
2023-02-24T21:09:15.813Z,5.67
2023-02-24T21:11:42.350Z,5.07
2023-02-24T21:14:14.648Z,4.63
2023-02-24T21:16:41.189Z,5.77
2023-02-24T21:19:07.657Z,5.50
2023-02-24T21:21:34.151Z,8.57
2023-02-24T21:24:00.745Z,8.47
2023-02-24T21:26:29.093Z,7.50
2023-02-24T21:28:57.989Z,5.67
2023-02-24T21:31:26.414Z,5.10
2023-02-24T21:33:53.929Z,5.40
2023-02-24T21:36:24.305Z,5.83
2023-02-24T21:38:52.292Z,5.87
2023-02-24T21:41:21.801Z,6.57
2023-02-24T21:43:51.998Z,6.30
2023-02-24T21:46:18.744Z,6.03
2023-02-24T21:48:45.533Z,5.83
2023-02-24T21:51:13.961Z,6.07
2023-02-24T21:53:43.539Z,5.67
2023-02-24T21:56:18.447Z,5.50
2023-02-24T21:58:47.804Z,5.57
2023-02-24T22:01:20.183Z,5.70
2023-02-24T22:03:46.982Z,5.50
2023-02-24T22:06:15.291Z,6.07
2023-02-24T22:08:45.328Z,5.80
2023-02-24T22:11:14.372Z,5.33
2023-02-24T22:13:41.866Z,5.33
2023-02-24T22:16:10.442Z,5.63
2023-02-24T22:18:37.024Z,5.50
2023-02-24T22:21:08.771Z,5.53
2023-02-24T22:23:35.349Z,5.57
2023-02-24T22:26:03.854Z,5.57
2023-02-24T22:28:30.550Z,5.90
2023-02-24T22:30:57.751Z,5.20
2023-02-24T22:33:24.526Z,5.30
2023-02-24T22:35:51.085Z,5.10
2023-02-24T22:38:17.566Z,5.40
2023-02-24T22:40:44.412Z,5.63
2023-02-24T22:43:10.888Z,5.00
2023-02-24T22:45:39.196Z,5.73
2023-02-24T22:48:05.758Z,5.53
2023-02-24T22:50:32.266Z,6.00
2023-02-24T22:52:58.717Z,5.23
2023-02-24T22:55:25.150Z,5.60
2023-02-24T22:57:51.651Z,5.10
2023-02-24T23:00:22.868Z,5.27
2023-02-24T23:02:49.302Z,4.70
2023-02-24T23:05:15.890Z,4.20
2023-02-24T23:07:42.437Z,4.53
2023-02-24T23:10:09.800Z,4.27
2023-02-24T23:12:37.544Z,4.30
2023-02-24T23:15:04.481Z,4.70
2023-02-24T23:17:30.922Z,3.90
2023-02-24T23:19:58.601Z,4.10
2023-02-24T23:22:25.120Z,4.00
2023-02-24T23:24:51.553Z,4.67
2023-02-24T23:27:17.976Z,4.40
2023-02-24T23:29:44.433Z,4.23
2023-02-24T23:32:11.014Z,3.63
2023-02-24T23:34:38.000Z,3.87
2023-02-24T23:37:04.529Z,4.20
2023-02-24T23:39:31.004Z,3.90
2023-02-24T23:41:57.887Z,4.10
2023-02-24T23:44:24.863Z,4.27
2023-02-24T23:46:51.330Z,4.47
2023-02-24T23:49:17.792Z,4.10
2023-02-24T23:51:49.042Z,4.20
2023-02-24T23:54:17.952Z,4.43
2023-02-24T23:56:44.541Z,4.27
2023-02-24T23:59:11.830Z,4.30
